Time;durP1;ratioP1;P1;durP2;ratioP2;P2;SDS_P1;SDS_P2;PMS_P1;PMS_P2;Temp;Humidity;BMP_temperature;BMP_pressure;BME280_temperature;BME280_humidity;BME280_pressure;Samples;Min_cycle;Max_cycle;Signal;HPM_P1;HPM_P2
2021/09/26 00:01:14;;;;;;;8.00;4.47;;;;;;;29.06;56.47;98057.72;5054331;28;20198;-66
2021/09/26 00:03:41;;;;;;;6.30;4.43;;;;;;;28.80;57.83;98051.28;5054454;28;20213;-66
2021/09/26 00:06:09;;;;;;;5.73;4.17;;;;;;;28.58;57.56;98040.34;5054761;28;20229;-67
2021/09/26 00:08:36;;;;;;;9.93;4.20;;;;;;;29.24;56.60;98039.31;5047549;28;20202;-67
2021/09/26 00:11:06;;;;;;;6.20;4.43;;;;;;;28.95;57.84;98036.28;5063331;28;20244;-67
2021/09/26 00:13:33;;;;;;;8.63;4.40;;;;;;;29.12;57.20;98039.13;5060055;28;20212;-67
2021/09/26 00:16:02;;;;;;;7.03;4.17;;;;;;;29.31;56.56;98039.66;5054190;28;20226;-67
2021/09/26 00:18:30;;;;;;;6.87;4.13;;;;;;;29.41;55.66;98036.59;5044850;28;20217;-67
2021/09/26 00:20:57;;;;;;;6.70;4.27;;;;;;;29.06;56.68;98040.41;5054492;28;20202;-67
2021/09/26 00:23:25;;;;;;;9.30;4.23;;;;;;;29.15;56.50;98033.00;5046378;28;20217;-67
2021/09/26 00:25:53;;;;;;;6.80;4.50;;;;;;;29.70;55.22;98039.59;5049366;28;20225;-67
2021/09/26 00:28:20;;;;;;;10.27;4.60;;;;;;;29.72;55.04;98037.31;5075745;23;20233;-66
2021/09/26 00:30:47;;;;;;;5.30;4.20;;;;;;;29.34;56.19;98028.03;5054718;28;20226;-66
2021/09/26 00:33:17;;;;;;;5.77;4.10;;;;;;;29.21;56.05;98029.78;5054823;28;20204;-67
2021/09/26 00:35:44;;;;;;;7.23;4.37;;;;;;;29.28;56.05;98021.84;5054280;28;20209;-66
2021/09/26 00:38:12;;;;;;;7.70;4.07;;;;;;;28.95;57.36;98028.88;5049369;28;20749;-67
2021/09/26 00:40:39;;;;;;;5.33;3.83;;;;;;;29.27;56.41;98027.66;5040066;28;20201;-66
2021/09/26 00:43:07;;;;;;;6.80;3.97;;;;;;;28.99;57.29;98023.56;5054468;28;20677;-66
2021/09/26 00:45:34;;;;;;;8.40;4.67;;;;;;;29.02;56.70;98020.16;5054557;28;20209;-69
2021/09/26 00:48:01;;;;;;;7.47;4.27;;;;;;;29.31;56.10;98015.72;5045964;28;20703;-66
2021/09/26 00:50:31;;;;;;;9.20;4.53;;;;;;;28.75;58.32;98012.13;5054332;28;20229;-68
2021/09/26 00:52:58;;;;;;;6.23;4.20;;;;;;;28.72;59.05;98012.75;5054355;28;20245;-67
2021/09/26 00:55:25;;;;;;;6.90;4.00;;;;;;;28.78;58.67;98022.50;5053874;28;20719;-69
2021/09/26 00:57:53;;;;;;;8.10;4.30;;;;;;;28.92;57.88;98023.19;5054176;28;20236;-66
2021/09/26 01:00:21;;;;;;;5.80;4.23;;;;;;;28.90;58.01;98025.44;5056860;28;20202;-68
2021/09/26 01:02:48;;;;;;;6.63;4.63;;;;;;;28.96;57.94;98021.41;5047186;28;20224;-67
2021/09/26 01:05:16;;;;;;;7.63;4.53;;;;;;;28.91;58.11;98021.56;5053931;28;20569;-68
2021/09/26 01:08:00;;;;;;;7.07;4.63;;;;;;;28.97;58.21;98023.88;5052343;28;20205;-66
2021/09/26 01:10:32;;;;;;;10.67;4.07;;;;;;;29.03;57.94;98025.34;5049538;28;20213;-67
2021/09/26 01:13:06;;;;;;;6.13;4.00;;;;;;;28.98;58.18;98024.72;5050229;28;20559;-68
2021/09/26 01:15:56;;;;;;;8.80;4.43;;;;;;;29.02;57.82;98029.25;5049172;28;20198;-68
2021/09/26 01:18:29;;;;;;;6.07;4.17;;;;;;;28.89;58.27;98030.13;5058214;28;20226;-68
2021/09/26 01:21:03;;;;;;;7.73;4.40;;;;;;;28.67;60.07;98018.41;5054311;28;20209;-68
2021/09/26 01:24:11;;;;;;;9.07;4.47;;;;;;;28.67;59.98;98026.63;5053906;28;20201;-68
2021/09/26 01:26:44;;;;;;;7.03;4.80;;;;;;;28.58;60.81;98026.59;5032423;28;20202;-68
2021/09/26 01:29:40;;;;;;;6.17;4.23;;;;;;;28.71;59.68;98025.69;5053201;28;20234;-69
2021/09/26 01:32:09;;;;;;;8.67;4.40;;;;;;;28.62;60.60;98026.78;5046176;28;20234;-68
2021/09/26 01:34:40;;;;;;;10.30;4.73;;;;;;;28.69;59.75;98033.44;5033454;28;20210;-68
2021/09/26 01:37:13;;;;;;;8.27;4.70;;;;;;;28.46;60.85;98034.63;5042478;28;20206;-69
2021/09/26 01:39:44;;;;;;;7.10;4.70;;;;;;;28.62;60.05;98029.53;5053387;28;20279;-68
2021/09/26 01:42:16;;;;;;;7.63;4.70;;;;;;;27.99;63.71;98026.22;5048190;28;20199;-69
2021/09/26 01:44:49;;;;;;;7.17;4.97;;;;;;;28.42;61.51;98027.34;5033206;28;20202;-68
2021/09/26 01:47:20;;;;;;;7.83;5.03;;;;;;;28.39;61.17;98028.78;5051717;28;20212;-69
2021/09/26 01:49:51;;;;;;;7.57;4.83;;;;;;;27.83;64.19;98024.97;5068011;28;20232;-69
2021/09/26 01:52:25;;;;;;;9.77;4.77;;;;;;;28.19;63.19;98031.22;5053954;28;20221;-68
2021/09/26 01:54:52;;;;;;;6.00;4.30;;;;;;;28.31;61.86;98029.50;5052694;28;20198;-68
2021/09/26 01:57:21;;;;;;;8.20;4.37;;;;;;;28.38;61.57;98029.06;5053271;28;20210;-69
2021/09/26 01:59:50;;;;;;;8.20;4.50;;;;;;;28.22;62.52;98036.09;5047117;28;20233;-68
2021/09/26 02:02:20;;;;;;;10.47;4.27;;;;;;;28.30;62.24;98038.06;5049933;28;20225;-69
2021/09/26 02:04:48;;;;;;;8.40;4.30;;;;;;;28.16;62.71;98029.91;5055160;28;20213;-69
2021/09/26 02:07:15;;;;;;;7.57;3.97;;;;;;;27.43;65.67;98031.38;5052151;28;20214;-69
2021/09/26 02:09:44;;;;;;;6.47;4.70;;;;;;;27.99;63.57;98027.06;5046617;28;20222;-69
2021/09/26 02:12:12;;;;;;;8.83;4.77;;;;;;;27.72;65.21;98020.84;5059127;28;20232;-68
2021/09/26 02:14:40;;;;;;;7.87;4.10;;;;;;;27.49;66.08;98024.66;5047199;28;20202;-69
2021/09/26 02:17:08;;;;;;;7.87;4.90;;;;;;;27.62;66.11;98023.81;5049247;28;20219;-69
2021/09/26 02:19:38;;;;;;;7.80;4.90;;;;;;;27.41;66.82;98028.16;5067341;28;20701;-69
2021/09/26 02:22:06;;;;;;;7.83;4.77;;;;;;;27.20;68.54;98010.50;5052689;28;20193;-69
2021/09/26 02:24:34;;;;;;;9.13;4.50;;;;;;;27.38;67.31;98012.31;5061677;28;20208;-68
2021/09/26 02:27:02;;;;;;;9.70;5.07;;;;;;;27.22;68.05;98009.06;5052167;28;20202;-68
2021/09/26 02:29:29;;;;;;;7.17;4.70;;;;;;;26.95;69.31;98011.84;5045004;28;20228;-68
2021/09/26 02:31:57;;;;;;;6.70;4.70;;;;;;;27.09;68.60;98014.56;5042570;28;20221;-69
2021/09/26 02:34:24;;;;;;;7.73;4.63;;;;;;;27.34;67.47;98016.78;5039885;28;20204;-69
2021/09/26 02:36:53;;;;;;;8.57;4.70;;;;;;;27.38;67.05;98018.59;5052340;28;20207;-69
2021/09/26 02:39:21;;;;;;;7.93;4.83;;;;;;;27.38;66.76;98028.75;5049899;28;20227;-68
2021/09/26 02:41:53;;;;;;;9.23;5.20;;;;;;;26.91;69.27;98030.00;5052391;28;20203;-68
2021/09/26 02:44:24;;;;;;;8.37;4.70;;;;;;;26.99;68.85;98039.44;5040597;28;20208;-68
2021/09/26 02:46:55;;;;;;;6.53;5.00;;;;;;;27.09;68.53;98037.28;5038534;28;20193;-69
2021/09/26 02:49:22;;;;;;;7.77;4.67;;;;;;;27.08;68.17;98043.06;5040897;28;20314;-69
2021/09/26 02:51:52;;;;;;;6.10;4.60;;;;;;;26.94;69.42;98031.31;5046856;28;20222;-68
2021/09/26 02:54:20;;;;;;;6.17;4.33;;;;;;;26.95;69.19;98025.53;5044191;28;20208;-67
2021/09/26 02:56:47;;;;;;;8.00;4.63;;;;;;;26.75;70.49;98033.34;5038710;28;20203;-67
2021/09/26 02:59:15;;;;;;;8.13;5.07;;;;;;;26.70;71.27;98023.31;5044299;28;20232;-67
2021/09/26 03:01:50;;;;;;;7.50;5.30;;;;;;;26.45;72.77;98023.75;5048831;28;20205;-67
2021/09/26 03:04:17;;;;;;;6.23;4.67;;;;;;;26.47;73.55;98020.72;5049286;28;20253;-67
2021/09/26 03:06:45;;;;;;;8.77;5.13;;;;;;;26.51;73.07;98011.59;5037432;28;20200;-67
2021/09/26 03:09:13;;;;;;;6.40;4.67;;;;;;;26.68;72.51;98000.91;5050020;28;20231;-67
2021/09/26 03:11:41;;;;;;;5.67;4.67;;;;;;;26.73;71.74;97999.97;5046063;28;20227;-67
2021/09/26 03:14:08;;;;;;;6.67;4.87;;;;;;;26.73;71.53;97992.59;5069657;28;20209;-67
2021/09/26 03:16:35;;;;;;;9.80;5.13;;;;;;;26.62;72.03;98002.13;5066598;28;20585;-67
2021/09/26 03:19:03;;;;;;;9.73;5.00;;;;;;;26.69;71.43;97999.78;5045470;28;20229;-67
2021/09/26 03:21:30;;;;;;;7.57;4.80;;;;;;;26.63;71.73;98002.91;5051890;28;20284;-67
2021/09/26 03:23:58;;;;;;;8.83;5.70;;;;;;;26.46;73.03;97992.53;5050730;28;20204;-67
2021/09/26 03:26:27;;;;;;;8.37;5.43;;;;;;;26.55;72.15;97989.91;5047361;28;20210;-67
2021/09/26 03:28:54;;;;;;;9.97;5.40;;;;;;;26.39;72.77;97989.38;5055236;28;20234;-67
2021/09/26 03:31:23;;;;;;;9.77;5.90;;;;;;;26.47;71.59;97988.69;5034984;28;20223;-68
2021/09/26 03:33:53;;;;;;;8.33;5.50;;;;;;;26.39;72.30;97989.38;5052507;28;20195;-68
2021/09/26 03:36:21;;;;;;;9.03;5.60;;;;;;;26.32;72.98;97997.19;5044633;28;20235;-68
2021/09/26 03:38:48;;;;;;;7.50;5.40;;;;;;;26.29;72.76;97992.31;5051784;28;20226;-67
2021/09/26 03:41:15;;;;;;;8.37;5.20;;;;;;;26.17;74.20;97988.44;5035188;28;20207;-68
2021/09/26 03:43:44;;;;;;;7.93;5.30;;;;;;;25.79;76.95;97986.91;5050791;28;20202;-68
2021/09/26 03:46:11;;;;;;;12.03;5.53;;;;;;;25.77;77.12;97989.09;5053243;28;20224;-68
2021/09/26 03:48:39;;;;;;;11.57;5.93;;;;;;;25.94;76.48;97976.53;5051556;28;20246;-68
2021/09/26 03:51:06;;;;;;;10.77;6.27;;;;;;;26.11;75.89;97986.91;5051248;28;20204;-68
2021/09/26 03:53:33;;;;;;;10.07;5.90;;;;;;;25.93;76.53;97988.59;5038473;28;20203;-68
2021/09/26 03:56:00;;;;;;;12.20;5.27;;;;;;;26.17;74.80;97994.72;5044327;28;20212;-68
2021/09/26 03:58:28;;;;;;;8.63;5.90;;;;;;;26.18;74.51;97996.34;5048796;28;20222;-68
2021/09/26 04:00:56;;;;;;;11.57;5.70;;;;;;;26.16;74.08;98001.31;5051611;28;20210;-68
2021/09/26 04:03:24;;;;;;;10.53;5.90;;;;;;;26.06;74.37;97998.75;5049426;28;20195;-68
2021/09/26 04:05:51;;;;;;;9.87;6.00;;;;;;;25.94;74.97;97994.88;5046877;28;20199;-68
2021/09/26 04:08:18;;;;;;;10.70;6.10;;;;;;;25.38;79.37;97991.38;5051090;28;20228;-68
2021/09/26 04:10:45;;;;;;;8.53;5.60;;;;;;;25.65;78.05;97992.28;5051583;28;20221;-68
2021/09/26 04:13:13;;;;;;;9.50;5.63;;;;;;;25.71;77.57;97987.56;5051461;28;20226;-68
2021/09/26 04:15:40;;;;;;;8.73;5.80;;;;;;;25.88;75.98;97996.03;5045247;28;20203;-68
2021/09/26 04:18:09;;;;;;;9.93;5.97;;;;;;;25.94;75.55;97990.19;5055063;28;20828;-68
2021/09/26 04:20:36;;;;;;;9.07;6.20;;;;;;;25.59;77.37;97995.44;5055073;28;20678;-68
2021/09/26 04:23:03;;;;;;;9.83;6.13;;;;;;;25.48;78.52;97999.44;5046660;28;20199;-68
2021/09/26 04:25:31;;;;;;;11.07;6.57;;;;;;;25.50;79.93;97994.47;5055678;28;20580;-68
2021/09/26 04:27:59;;;;;;;12.63;6.17;;;;;;;25.60;78.95;97997.88;5054255;28;20721;-68
2021/09/26 04:30:26;;;;;;;12.37;6.70;;;;;;;25.59;78.41;97992.69;5034867;28;20214;-68
2021/09/26 04:32:54;;;;;;;9.23;6.80;;;;;;;25.67;78.64;98000.19;5049207;28;20213;-68
2021/09/26 04:35:22;;;;;;;10.20;6.53;;;;;;;25.84;77.65;97992.28;5051738;28;20203;-68
2021/09/26 04:37:52;;;;;;;11.10;6.03;;;;;;;25.82;77.01;97989.84;5049153;28;20217;-68
2021/09/26 04:40:19;;;;;;;9.80;6.73;;;;;;;25.77;77.52;97987.19;5046930;28;20249;-68
2021/09/26 04:42:47;;;;;;;14.50;6.47;;;;;;;25.61;79.01;97979.53;5054501;28;20195;-67
2021/09/26 04:45:14;;;;;;;8.83;6.00;;;;;;;25.61;79.30;97977.63;5054095;28;20234;-68
2021/09/26 04:47:41;;;;;;;10.90;6.17;;;;;;;25.77;78.45;97979.00;5054295;28;20199;-68
2021/09/26 04:50:10;;;;;;;10.13;6.90;;;;;;;25.77;78.26;97980.91;5046031;28;20207;-67
2021/09/26 04:52:39;;;;;;;9.93;6.70;;;;;;;25.47;80.31;97978.66;5045929;28;20229;-68
2021/09/26 04:55:08;;;;;;;11.87;6.43;;;;;;;25.06;82.94;97977.59;5046567;28;20264;-68
2021/09/26 04:57:35;;;;;;;10.97;5.80;;;;;;;25.54;80.88;97976.38;5039069;28;20239;-71
2021/09/26 05:00:03;;;;;;;8.17;6.30;;;;;;;25.73;78.55;97985.34;5047524;28;20205;-68
2021/09/26 05:02:30;;;;;;;10.57;6.57;;;;;;;25.76;77.77;97991.03;5053870;28;20197;-68
2021/09/26 05:04:58;;;;;;;9.60;6.33;;;;;;;25.64;78.74;97996.13;5051205;28;20217;-68
2021/09/26 05:07:25;;;;;;;10.47;6.60;;;;;;;25.56;78.75;97999.56;5054229;28;20201;-68
2021/09/26 05:09:54;;;;;;;12.80;6.70;;;;;;;25.61;77.43;97994.00;5051727;28;20213;-68
2021/09/26 05:12:21;;;;;;;9.83;6.03;;;;;;;25.55;77.82;97997.13;5049173;28;20230;-68
2021/09/26 05:14:48;;;;;;;10.53;7.07;;;;;;;25.51;78.27;97991.44;5047231;28;20216;-68
2021/09/26 05:17:16;;;;;;;11.20;6.80;;;;;;;25.51;77.83;98002.38;5061602;28;20210;-69
2021/09/26 05:19:46;;;;;;;13.73;7.77;;;;;;;25.53;77.76;98002.09;5052609;28;20225;-68
2021/09/26 05:22:14;;;;;;;10.40;6.70;;;;;;;25.52;77.28;98006.72;5066959;28;20233;-68
2021/09/26 05:24:41;;;;;;;9.40;6.40;;;;;;;25.54;76.90;98003.69;5054307;28;20201;-68
2021/09/26 05:27:10;;;;;;;9.53;6.53;;;;;;;25.42;78.35;98000.59;5053246;28;20213;-68
2021/09/26 05:29:38;;;;;;;10.40;6.93;;;;;;;25.43;78.42;98004.97;5050880;28;20236;-68
2021/09/26 05:32:06;;;;;;;13.60;7.37;;;;;;;25.19;79.91;98004.97;5053191;28;20312;-73
2021/09/26 05:34:33;;;;;;;10.80;7.13;;;;;;;25.19;79.78;98009.66;5055476;28;20216;-72
2021/09/26 05:37:01;;;;;;;15.50;7.63;;;;;;;25.04;81.51;98001.66;5056404;28;20208;-72
2021/09/26 05:39:28;;;;;;;11.57;6.60;;;;;;;24.90;82.62;97998.00;5052459;28;20220;-72
2021/09/26 05:41:56;;;;;;;13.73;7.53;;;;;;;25.13;82.09;97994.44;5056699;28;20229;-67
2021/09/26 05:44:25;;;;;;;9.93;7.13;;;;;;;25.32;81.16;97995.25;5055924;28;20201;-68
2021/09/26 05:46:52;;;;;;;10.40;7.00;;;;;;;25.59;79.70;98003.63;5054341;28;20213;-69
2021/09/26 05:49:19;;;;;;;11.23;7.17;;;;;;;25.44;80.13;98015.56;5061279;28;20237;-70
2021/09/26 05:51:47;;;;;;;12.07;6.97;;;;;;;25.65;79.28;98008.69;5051009;28;20293;-70
2021/09/26 05:54:14;;;;;;;12.00;6.73;;;;;;;25.67;79.08;98011.13;5051056;28;20202;-68
2021/09/26 05:56:41;;;;;;;10.20;7.20;;;;;;;25.77;78.57;98011.81;5041767;28;20206;-68
2021/09/26 05:59:08;;;;;;;12.40;8.07;;;;;;;25.85;77.87;98015.78;5049219;28;21878;-67
2021/09/26 06:01:37;;;;;;;14.13;7.87;;;;;;;25.62;80.22;98008.47;5043201;28;20207;-70
2021/09/26 06:04:05;;;;;;;10.17;7.53;;;;;;;25.97;78.55;98007.94;5047715;28;20666;-70
2021/09/26 06:06:32;;;;;;;12.43;7.80;;;;;;;26.08;77.49;98001.19;5051545;28;20604;-67
2021/09/26 06:08:59;;;;;;;10.23;7.33;;;;;;;26.07;77.40;98005.84;5051083;28;20240;-68
2021/09/26 06:11:27;;;;;;;9.87;7.87;;;;;;;25.83;79.41;98013.34;5049096;28;20198;-69
2021/09/26 06:13:54;;;;;;;9.13;7.17;;;;;;;26.00;78.68;98026.50;5050230;28;20285;-71
2021/09/26 06:16:21;;;;;;;15.00;7.83;;;;;;;26.20;77.81;98023.41;5052097;28;20203;-68
2021/09/26 06:18:50;;;;;;;9.87;7.20;;;;;;;26.18;79.14;98025.63;5056920;28;20222;-68
2021/09/26 06:21:17;;;;;;;14.93;8.20;;;;;;;26.18;78.14;98017.41;5047406;28;20215;-72
2021/09/26 06:23:45;;;;;;;12.13;7.47;;;;;;;26.57;76.83;98015.09;5054745;28;20206;-68
2021/09/26 06:26:14;;;;;;;8.70;6.70;;;;;;;26.66;76.42;98025.00;5060535;28;20678;-68
2021/09/26 06:28:41;;;;;;;15.37;7.57;;;;;;;26.75;75.90;98020.47;5051267;28;20231;-70
2021/09/26 06:31:08;;;;;;;14.13;7.10;;;;;;;26.89;75.54;98007.59;5050915;28;20211;-69
2021/09/26 06:33:40;;;;;;;11.47;6.97;;;;;;;26.99;75.61;98018.34;5061852;28;20227;-69
2021/09/26 06:36:09;;;;;;;9.03;6.93;;;;;;;27.14;75.26;98012.53;5056076;28;20612;-70
2021/09/26 06:38:36;;;;;;;9.97;6.70;;;;;;;27.25;74.53;98016.69;5049254;28;20706;-70
2021/09/26 06:41:04;;;;;;;10.10;6.83;;;;;;;27.13;73.96;98010.91;5052695;28;20287;-77
2021/09/26 06:43:31;;;;;;;9.03;6.20;;;;;;;27.38;74.53;98010.38;5053281;28;20202;-74
2021/09/26 06:45:58;;;;;;;9.07;6.13;;;;;;;27.59;73.69;98021.69;5049148;28;20211;-73
2021/09/26 06:48:26;;;;;;;10.67;6.80;;;;;;;27.66;72.35;98025.63;5057310;28;20224;-71
2021/09/26 06:50:53;;;;;;;12.13;7.97;;;;;;;27.68;73.08;98028.06;5060955;28;20203;-72
2021/09/26 06:53:22;;;;;;;10.53;6.67;;;;;;;27.96;71.48;98037.81;5051034;28;20255;-72
2021/09/26 06:55:49;;;;;;;8.87;6.50;;;;;;;28.11;70.37;98041.00;5050260;28;20211;-73
2021/09/26 06:58:16;;;;;;;10.27;7.00;;;;;;;28.18;70.36;98041.38;5046263;28;20225;-74
2021/09/26 07:00:43;;;;;;;9.37;6.17;;;;;;;28.17;69.66;98044.44;5062755;28;20205;-76
2021/09/26 07:03:14;;;;;;;9.17;6.10;;;;;;;28.29;70.02;98052.91;5048989;28;20210;-72
2021/09/26 07:05:41;;;;;;;10.93;6.17;;;;;;;28.33;70.21;98054.69;5046390;28;20302;-72
2021/09/26 07:08:08;;;;;;;10.50;5.97;;;;;;;28.54;69.34;98058.56;5057167;28;20237;-72
2021/09/26 07:10:37;;;;;;;10.97;5.67;;;;;;;28.39;69.67;98059.00;5049800;28;20206;-72
2021/09/26 07:13:04;;;;;;;11.67;5.93;;;;;;;28.75;68.15;98064.34;5048622;28;20236;-72
2021/09/26 07:15:32;;;;;;;9.13;5.57;;;;;;;29.07;67.50;98059.31;5048915;28;20202;-70
2021/09/26 07:17:59;;;;;;;8.93;4.87;;;;;;;28.98;65.34;98060.44;5049972;28;20228;-70
2021/09/26 07:20:28;;;;;;;9.00;5.33;;;;;;;29.47;65.23;98055.38;5040986;28;20208;-70
2021/09/26 07:22:56;;;;;;;12.23;5.90;;;;;;;29.22;65.62;98056.13;5053017;28;20198;-70
2021/09/26 07:25:23;;;;;;;10.70;7.00;;;;;;;29.58;63.25;98055.91;5047628;28;20214;-70
2021/09/26 07:27:52;;;;;;;13.73;6.17;;;;;;;29.04;64.82;98059.16;5047087;28;20213;-70
2021/09/26 07:30:19;;;;;;;10.77;6.30;;;;;;;28.42;66.57;98061.09;5045974;28;20214;-72
2021/09/26 07:32:47;;;;;;;10.33;5.40;;;;;;;29.42;64.30;98076.72;5047739;28;20225;-70
2021/09/26 07:35:15;;;;;;;8.40;5.70;;;;;;;29.38;63.99;98081.22;5042186;28;20201;-72
2021/09/26 07:37:43;;;;;;;9.97;6.23;;;;;;;29.62;63.73;98084.38;5057377;28;20210;-72
2021/09/26 07:40:11;;;;;;;9.00;5.43;;;;;;;30.04;60.96;98087.16;5057649;28;20213;-71
2021/09/26 07:42:38;;;;;;;8.97;5.13;;;;;;;30.04;61.21;98089.09;5047518;28;20220;-72
2021/09/26 07:45:10;;;;;;;9.90;5.20;;;;;;;29.73;64.07;98078.25;5047480;28;20206;-70
2021/09/26 07:47:38;;;;;;;7.07;4.80;;;;;;;30.24;61.72;98085.72;5048680;28;20210;-71
2021/09/26 07:50:07;;;;;;;9.87;5.10;;;;;;;30.87;59.19;98094.06;5049150;28;20214;-71
2021/09/26 07:52:34;;;;;;;8.17;4.80;;;;;;;30.86;59.51;98097.94;5047723;28;20293;-71
2021/09/26 07:55:01;;;;;;;8.17;4.93;;;;;;;30.84;59.91;98108.47;5055310;28;20898;-71
2021/09/26 07:57:28;;;;;;;6.80;4.40;;;;;;;30.32;60.73;98118.78;5061184;28;20202;-72
2021/09/26 07:59:56;;;;;;;5.73;4.40;;;;;;;31.09;58.00;98129.63;5054158;28;20230;-71
2021/09/26 08:02:25;;;;;;;9.10;5.00;;;;;;;30.14;59.59;98132.84;5051105;28;20639;-71
2021/09/26 08:04:53;;;;;;;6.63;4.20;;;;;;;30.76;58.66;98125.88;5053838;28;20585;-77
2021/09/26 08:07:20;;;;;;;8.07;4.87;;;;;;;31.03;57.64;98134.53;5046804;28;20206;-73
2021/09/26 08:09:47;;;;;;;7.60;4.67;;;;;;;31.21;57.16;98141.63;5046703;28;20223;-75
2021/09/26 08:12:15;;;;;;;7.37;3.87;;;;;;;30.69;58.42;98144.84;5047297;28;20565;-75
2021/09/26 08:14:42;;;;;;;6.20;4.40;;;;;;;31.22;55.70;98156.22;5053336;28;20235;-71
2021/09/26 08:17:09;;;;;;;11.10;4.60;;;;;;;31.42;56.01;98159.03;5052739;28;20212;-70
2021/09/26 08:19:38;;;;;;;7.83;4.37;;;;;;;31.32;56.57;98167.69;5051704;28;20228;-71
2021/09/26 08:22:07;;;;;;;7.93;4.07;;;;;;;30.49;59.08;98165.59;5053902;28;20703;-70
2021/09/26 08:24:34;;;;;;;7.37;4.90;;;;;;;31.15;56.73;98169.69;5064124;28;20208;-69
2021/09/26 08:27:03;;;;;;;7.60;4.27;;;;;;;30.90;58.55;98167.81;5055517;28;20608;-71
2021/09/26 08:29:31;;;;;;;6.53;3.83;;;;;;;31.18;56.39;98174.53;5051286;28;20239;-82
2021/09/26 08:31:58;;;;;;;8.17;4.53;;;;;;;31.25;56.85;98169.34;5045648;28;20210;-70
2021/09/26 08:34:25;;;;;;;7.95;4.40;;;;;;;31.96;54.29;98184.91;5054038;28;20219;-70
2021/09/26 08:36:54;;;;;;;8.00;4.50;;;;;;;31.64;54.04;98193.84;5058817;28;20205;-71
2021/09/26 08:39:21;;;;;;;6.63;4.00;;;;;;;32.19;53.17;98189.00;5044880;28;20719;-77
2021/09/26 08:41:53;;;;;;;7.20;4.50;;;;;;;32.51;52.21;98186.31;5058637;28;21414;-80
2021/09/26 08:44:23;;;;;;;10.67;4.23;;;;;;;32.36;53.43;98186.94;5067875;28;20236;-77
2021/09/26 08:46:52;;;;;;;9.37;4.53;;;;;;;32.64;51.97;98184.41;5060713;28;20216;-79
2021/09/26 08:49:20;;;;;;;7.35;4.80;;;;;;;33.12;50.73;98187.34;5068824;28;20226;-77
2021/09/26 08:51:47;;;;;;;7.00;4.03;;;;;;;32.72;50.82;98181.56;5067681;28;20219;-80
2021/09/26 08:54:16;;;;;;;7.43;4.25;;;;;;;31.61;53.85;98175.19;5055915;28;20226;-77
2021/09/26 08:56:44;;;;;;;8.63;4.00;;;;;;;32.94;50.34;98197.00;5065793;28;20202;-81
2021/09/26 08:59:11;;;;;;;12.70;4.32;;;;;;;32.94;51.21;98203.31;5061188;28;20317;-80
2021/09/26 09:01:39;;;;;;;7.80;4.40;;;;;;;31.69;53.30;98205.53;5063076;28;20205;-79
2021/09/26 09:04:07;;;;;;;8.52;4.30;;;;;;;31.64;53.82;98204.88;5066803;28;20281;-77
2021/09/26 09:06:42;;;;;;;8.45;4.57;;;;;;;32.70;50.80;98199.66;5054747;28;20749;-79
2021/09/26 09:09:14;;;;;;;8.00;4.05;;;;;;;32.23;51.22;98195.47;5057116;28;20232;-81
2021/09/26 09:11:44;;;;;;;8.00;4.40;;;;;;;32.43;51.16;98189.16;5061333;28;20202;-78
2021/09/26 09:14:12;;;;;;;9.27;4.50;;;;;;;31.81;52.90;98200.13;5054304;28;20892;-75
2021/09/26 09:16:39;;;;;;;5.95;4.07;;;;;;;31.24;54.20;98198.06;5054506;28;20206;-77
2021/09/26 09:19:21;;;;;;;6.35;4.18;;;;;;;31.80;53.43;98205.97;5052270;28;20225;-79
2021/09/26 09:22:05;;;;;;;7.97;4.43;;;;;;;31.87;53.27;98201.53;5075906;28;20208;-80
2021/09/26 09:24:40;;;;;;;20.30;4.97;;;;;;;31.94;52.79;98212.06;5057074;28;20300;-79
2021/09/26 09:27:09;;;;;;;6.93;4.32;;;;;;;31.75;52.50;98203.41;5058318;28;20213;-79
2021/09/26 09:29:38;;;;;;;5.30;4.30;;;;;;;32.64;49.94;98206.53;5049907;28;20229;-80
2021/09/26 09:32:17;;;;;;;6.20;4.10;;;;;;;33.17;49.79;98209.28;5060188;28;20273;-79
2021/09/26 09:34:44;;;;;;;6.87;4.83;;;;;;;31.92;51.29;98219.88;5064147;28;20233;-76
2021/09/26 09:37:14;;;;;;;10.25;5.03;;;;;;;31.89;50.57;98212.25;5064830;28;20218;-79
2021/09/26 09:39:42;;;;;;;8.90;5.20;;;;;;;31.58;50.35;98223.56;5056277;28;20218;-76
2021/09/26 09:42:22;;;;;;;8.27;5.23;;;;;;;32.16;48.95;98220.84;5052360;28;20208;-73
2021/09/26 09:44:50;;;;;;;9.30;6.37;;;;;;;31.38;50.57;98216.06;5062032;28;20198;-79
2021/09/26 09:47:21;;;;;;;7.97;5.60;;;;;;;31.78;49.18;98222.84;5054431;28;20740;-80
